createdAt,value
2019-04-05T00:06:05.914Z,57.55
2019-04-05T00:16:11.760Z,54.38
2019-04-05T00:26:17.190Z,54.05
2019-04-05T00:36:22.727Z,51.15
2019-04-05T00:46:28.020Z,51.48
2019-04-05T00:56:33.675Z,51.45
2019-04-05T01:06:39.084Z,55.55
2019-04-05T01:16:44.532Z,53.28
2019-04-05T01:26:50.699Z,55.20
2019-04-05T01:36:56.149Z,53.73
2019-04-05T01:47:01.705Z,53.23
2019-04-05T01:57:07.015Z,53.65
2019-04-05T02:07:12.345Z,50.08
2019-04-05T02:17:17.757Z,54.73
2019-04-05T02:27:23.364Z,48.73
2019-04-05T02:37:28.638Z,53.63
2019-04-05T02:47:34.018Z,54.95
2019-04-05T02:57:40.156Z,52.67
2019-04-05T03:07:45.747Z,56.80
2019-04-05T03:17:51.212Z,49.93
2019-04-05T03:27:56.627Z,53.15
2019-04-05T03:38:02.843Z,52.73
2019-04-05T03:48:08.930Z,50.03
2019-04-05T03:58:14.369Z,57.88
2019-04-05T04:08:23.253Z,58.50
2019-04-05T04:18:27.600Z,54.98
2019-04-05T04:28:33.724Z,56.30
2019-04-05T04:38:39.424Z,58.13
2019-04-05T04:48:45.292Z,59.77
2019-04-05T04:58:50.660Z,64.70
2019-04-05T05:08:56.532Z,61.95
2019-04-05T05:19:02.024Z,60.78
2019-04-05T05:29:07.632Z,59.15
2019-04-05T05:39:13.081Z,59.08
2019-04-05T05:49:18.460Z,64.10
2019-04-05T05:59:24.063Z,60.52
2019-04-05T06:09:29.356Z,63.02
2019-04-05T06:19:34.703Z,69.87
2019-04-05T06:29:40.058Z,70.75
2019-04-05T06:39:45.337Z,75.80
2019-04-05T06:49:50.671Z,72.32
2019-04-05T06:59:55.985Z,80.90
2019-04-05T07:10:01.989Z,77.20
2019-04-05T07:20:07.914Z,77.67
2019-04-05T07:30:13.787Z,69.72
2019-04-05T07:40:19.356Z,66.20
2019-04-05T07:50:24.661Z,62.80
2019-04-05T08:00:50.615Z,57.50
2019-04-05T08:11:15.824Z,65.87
2019-04-05T08:21:38.493Z,62.10
2019-04-05T08:32:13.861Z,61.55
2019-04-05T08:42:26.824Z,58.55
2019-04-05T08:52:50.368Z,62.98
2019-04-05T09:03:14.217Z,66.33
2019-04-05T09:13:37.457Z,70.90
2019-04-05T09:24:00.038Z,71.15
2019-04-05T09:34:23.532Z,82.90
2019-04-05T09:44:46.465Z,94.13
2019-04-05T09:55:09.565Z,91.50
2019-04-05T10:05:32.775Z,139.40
2019-04-05T10:15:55.933Z,109.92
2019-04-05T10:26:19.384Z,130.50
2019-04-05T10:36:42.581Z,117.42
2019-04-05T10:47:05.937Z,110.20
2019-04-05T10:57:28.944Z,111.17
2019-04-05T11:07:52.403Z,105.58
2019-04-05T11:18:15.823Z,97.42
2019-04-05T11:28:39.092Z,90.55
2019-04-05T11:39:05.359Z,90.05
2019-04-05T11:49:30.056Z,86.12
2019-04-05T11:59:53.044Z,84.50
2019-04-05T12:10:18.747Z,77.32
2019-04-05T12:20:49.447Z,74.15
2019-04-05T12:31:06.409Z,69.55
2019-04-05T12:41:29.691Z,69.70
2019-04-05T12:51:53.005Z,68.17
2019-04-05T13:02:20.630Z,65.40
2019-04-05T13:12:42.560Z,68.10
2019-04-05T13:23:06.697Z,57.83
2019-04-05T13:33:30.656Z,68.85
2019-04-05T13:43:54.172Z,56.85
2019-04-05T13:54:17.357Z,55.65
2019-04-05T14:04:40.776Z,60.67
2019-04-05T14:15:03.889Z,56.98
2019-04-05T14:25:29.971Z,56.58
2019-04-05T14:35:52.557Z,54.25
2019-04-05T14:46:15.949Z,56.35
2019-04-05T14:56:39.092Z,55.08
2019-04-05T15:07:02.193Z,54.20
2019-04-05T15:17:24.780Z,53.50
2019-04-05T15:27:51.326Z,54.23
2019-04-05T15:38:12.664Z,52.85
2019-04-05T15:48:36.244Z,56.75
2019-04-05T15:59:01.507Z,52.53
2019-04-05T16:09:25.005Z,61.05
2019-04-05T16:19:48.097Z,60.70
2019-04-05T16:30:11.498Z,57.62
2019-04-05T16:40:34.491Z,56.98
2019-04-05T16:50:57.792Z,60.15
2019-04-05T17:01:26.984Z,55.55
2019-04-05T17:11:45.736Z,57.45
2019-04-05T17:22:09.118Z,61.33
2019-04-05T17:32:32.500Z,59.33
2019-04-05T17:42:55.532Z,61.88
2019-04-05T17:53:18.731Z,61.60
2019-04-05T18:03:41.787Z,60.90
2019-04-05T18:14:04.826Z,61.37
2019-04-05T18:24:28.242Z,60.20
2019-04-05T18:34:50.854Z,58.50
2019-04-05T18:45:13.916Z,63.90
2019-04-05T18:55:36.587Z,62.65
2019-04-05T19:06:00.118Z,65.15
2019-04-05T19:16:23.447Z,72.42
2019-04-05T19:26:47.366Z,72.92
2019-04-05T19:58:00.140Z,79.20
2019-04-05T20:08:23.445Z,78.40
2019-04-05T20:18:46.260Z,79.22
2019-04-05T20:29:09.373Z,77.37
2019-04-05T20:39:32.598Z,76.77
2019-04-05T20:49:55.661Z,78.35
2019-04-05T21:00:18.984Z,68.80
2019-04-05T21:10:42.232Z,75.78
2019-04-05T21:21:05.813Z,68.33
2019-04-05T21:31:28.260Z,79.15
2019-04-05T21:41:51.553Z,68.10
2019-04-05T21:52:15.130Z,72.70
2019-04-05T22:02:38.543Z,70.72
2019-04-05T22:13:04.483Z,78.62
2019-04-05T22:23:28.227Z,68.65
2019-04-05T22:33:52.097Z,67.10
2019-04-05T22:44:15.285Z,61.85
2019-04-05T22:54:38.772Z,70.87
2019-04-05T23:05:02.026Z,62.70
2019-04-05T23:15:25.661Z,73.47
2019-04-05T23:25:49.391Z,71.90
2019-04-05T23:36:12.372Z,63.70
2019-04-05T23:46:35.576Z,65.85
2019-04-05T23:56:58.805Z,74.90
